createdAt,value
2018-04-15T00:00:57.235Z,65.95
2018-04-15T00:03:23.534Z,66.05
2018-04-15T00:05:49.865Z,65.72
2018-04-15T00:08:16.130Z,65.88
2018-04-15T00:10:42.541Z,65.58
2018-04-15T00:13:09.624Z,65.62
2018-04-15T00:15:35.938Z,65.91
2018-04-15T00:18:02.251Z,66.12
2018-04-15T00:20:29.294Z,65.94
2018-04-15T00:22:56.358Z,66.10
2018-04-15T00:25:22.658Z,66.28
2018-04-15T00:27:48.944Z,66.23
2018-04-15T00:30:16.113Z,65.97
2018-04-15T00:32:42.393Z,66.03
2018-04-15T00:35:09.407Z,66.03
2018-04-15T00:37:35.722Z,66.13
2018-04-15T00:40:02.051Z,66.19
2018-04-15T00:42:28.307Z,66.74
2018-04-15T00:44:54.591Z,66.87
2018-04-15T00:47:20.873Z,67.17
2018-04-15T00:49:47.179Z,67.20
2018-04-15T00:52:14.212Z,67.32
2018-04-15T00:54:40.473Z,67.19
2018-04-15T00:57:06.755Z,67.29
2018-04-15T00:59:33.099Z,67.52
2018-04-15T01:01:59.359Z,67.82
2018-04-15T01:04:25.629Z,67.75
2018-04-15T01:06:52.665Z,67.61
2018-04-15T01:09:19.763Z,67.31
2018-04-15T01:11:46.105Z,67.32
2018-04-15T01:14:12.366Z,67.39
2018-04-15T01:16:38.679Z,67.59
2018-04-15T01:19:04.989Z,67.64
2018-04-15T01:21:31.270Z,67.49
2018-04-15T01:23:58.308Z,67.35
2018-04-15T01:26:25.315Z,67.45
2018-04-15T01:28:51.662Z,67.32
2018-04-15T01:31:18.030Z,67.22
2018-04-15T01:33:45.089Z,67.34
2018-04-15T01:36:11.451Z,67.19
2018-04-15T01:38:37.763Z,67.18
2018-04-15T01:41:04.080Z,67.13
2018-04-15T01:43:31.075Z,66.82
2018-04-15T01:45:57.381Z,67.07
2018-04-15T01:48:23.665Z,66.65
2018-04-15T01:50:49.972Z,66.48
2018-04-15T01:53:16.987Z,66.41
2018-04-15T01:55:43.256Z,65.84
2018-04-15T01:58:09.571Z,65.60
2018-04-15T02:00:35.836Z,65.81
2018-04-15T02:03:02.894Z,65.72
2018-04-15T02:05:29.906Z,65.84
2018-04-15T02:07:56.200Z,65.98
2018-04-15T02:10:22.506Z,66.53
2018-04-15T02:12:49.612Z,66.68
2018-04-15T02:15:15.920Z,67.15
2018-04-15T02:17:42.208Z,67.47
2018-04-15T02:20:09.266Z,67.55
2018-04-15T02:22:35.534Z,67.68
2018-04-15T02:25:01.822Z,67.71
2018-04-15T02:27:28.103Z,67.62
2018-04-15T02:29:54.407Z,68.05
2018-04-15T02:32:20.707Z,67.58
2018-04-15T02:34:47.755Z,67.91
2018-04-15T02:37:14.800Z,67.76
2018-04-15T02:39:41.852Z,67.96
2018-04-15T02:42:08.928Z,68.19
2018-04-15T02:44:35.215Z,68.01
2018-04-15T02:47:01.494Z,68.02
2018-04-15T02:49:27.803Z,67.81
2018-04-15T02:51:54.059Z,67.47
2018-04-15T02:54:20.391Z,67.30
2018-04-15T02:56:46.754Z,67.61
2018-04-15T02:59:13.038Z,67.59
2018-04-15T03:01:39.368Z,67.56
2018-04-15T03:04:05.696Z,67.20
2018-04-15T03:06:32.012Z,67.06
2018-04-15T03:08:59.081Z,66.60
2018-04-15T03:11:25.367Z,66.36
2018-04-15T03:13:51.653Z,66.32
2018-04-15T03:16:17.934Z,66.34
2018-04-15T03:18:44.224Z,66.10
2018-04-15T03:21:10.491Z,66.06
2018-04-15T03:23:36.799Z,66.08
2018-04-15T03:26:03.084Z,66.26
2018-04-15T03:28:29.552Z,66.15
2018-04-15T03:30:56.364Z,66.37
2018-04-15T03:33:22.661Z,66.64
2018-04-15T03:35:48.935Z,67.08
2018-04-15T03:38:15.283Z,67.44
2018-04-15T03:40:41.547Z,67.69
2018-04-15T03:43:07.852Z,67.77
2018-04-15T03:45:34.137Z,67.84
2018-04-15T03:48:01.135Z,67.98
2018-04-15T03:50:27.436Z,68.04
2018-04-15T03:52:53.716Z,67.92
2018-04-15T03:55:19.981Z,67.98
2018-04-15T03:57:46.269Z,68.14
2018-04-15T04:00:12.605Z,68.31
2018-04-15T04:02:38.866Z,68.62
2018-04-15T04:05:05.158Z,68.97
2018-04-15T04:07:31.424Z,69.27
2018-04-15T04:09:58.450Z,69.08
2018-04-15T04:12:24.774Z,68.98
2018-04-15T04:14:51.173Z,68.73
2018-04-15T04:17:17.458Z,68.41
2018-04-15T04:20:02.947Z,68.58
2018-04-15T04:22:48.775Z,68.97
2018-04-15T04:25:33.765Z,69.55
2018-04-15T04:28:01.255Z,69.80
2018-04-15T04:30:28.253Z,69.53
2018-04-15T04:32:54.630Z,69.23
2018-04-15T04:35:21.640Z,69.18
2018-04-15T04:37:47.946Z,68.95
2018-04-15T04:40:14.243Z,68.72
2018-04-15T04:42:40.556Z,68.46
2018-04-15T04:45:06.879Z,68.37
2018-04-15T04:47:33.167Z,67.84
2018-04-15T04:50:00.448Z,67.41
2018-04-15T04:52:26.750Z,66.88
2018-04-15T04:54:53.043Z,66.45
2018-04-15T04:57:20.119Z,66.13
2018-04-15T04:59:46.424Z,66.00
2018-04-15T05:02:13.440Z,65.98
2018-04-15T05:04:39.839Z,65.83
2018-04-15T05:07:06.119Z,65.70
2018-04-15T05:09:32.436Z,65.35
2018-04-15T05:11:58.827Z,64.66
2018-04-15T05:14:25.185Z,64.28
2018-04-15T05:16:51.483Z,63.87
2018-04-15T05:19:17.805Z,63.67
2018-04-15T05:21:44.953Z,63.77
2018-04-15T05:24:11.954Z,63.85
2018-04-15T05:26:38.234Z,63.84
2018-04-15T05:29:04.500Z,63.86
2018-04-15T05:31:30.795Z,63.17
2018-04-15T05:33:57.846Z,62.28
2018-04-15T05:36:25.147Z,61.68
2018-04-15T05:38:51.466Z,61.72
2018-04-15T05:41:17.743Z,61.33
2018-04-15T05:43:44.782Z,61.11
2018-04-15T05:46:11.865Z,60.87
2018-04-15T05:48:38.195Z,59.95
2018-04-15T05:51:04.538Z,59.61
2018-04-15T05:53:31.876Z,58.46
2018-04-15T05:55:58.219Z,56.66
2018-04-15T05:58:24.525Z,55.64
2018-04-15T06:00:51.586Z,54.49
2018-04-15T06:03:17.953Z,52.72
2018-04-15T06:05:44.243Z,52.17
2018-04-15T06:08:11.576Z,51.07
2018-04-15T06:10:37.962Z,50.02
2018-04-15T06:13:04.294Z,49.69
2018-04-15T06:15:30.623Z,49.48
2018-04-15T06:17:56.927Z,48.90
2018-04-15T06:20:23.219Z,48.44
2018-04-15T06:22:49.553Z,48.76
2018-04-15T06:25:15.884Z,48.48
2018-04-15T06:27:42.189Z,48.29
2018-04-15T06:30:08.478Z,47.23
2018-04-15T06:32:34.843Z,47.32
2018-04-15T06:35:01.118Z,46.61
2018-04-15T06:37:28.174Z,45.94
2018-04-15T06:39:55.196Z,46.09
2018-04-15T06:42:21.489Z,45.91
2018-04-15T06:44:47.744Z,45.48
2018-04-15T06:47:14.067Z,45.73
2018-04-15T06:49:40.351Z,45.00
2018-04-15T06:52:07.434Z,45.03
2018-04-15T06:54:33.717Z,44.33
2018-04-15T06:57:00.741Z,44.03
2018-04-15T06:59:27.141Z,44.63
2018-04-15T07:01:53.418Z,44.25
2018-04-15T07:04:19.729Z,44.05
2018-04-15T07:06:46.011Z,43.71
2018-04-15T07:09:13.250Z,43.39
2018-04-15T07:11:40.293Z,43.08
2018-04-15T07:14:07.384Z,42.92
2018-04-15T07:16:34.109Z,42.79
2018-04-15T07:19:01.237Z,41.99
2018-04-15T07:21:28.304Z,41.79
2018-04-15T07:23:54.619Z,40.92
2018-04-15T07:26:21.735Z,40.14
2018-04-15T07:28:48.057Z,39.87
2018-04-15T07:31:14.402Z,39.74
2018-04-15T07:33:40.696Z,39.28
2018-04-15T07:36:07.015Z,39.70
2018-04-15T07:38:33.368Z,38.88
2018-04-15T07:40:59.743Z,38.41
2018-04-15T07:43:26.870Z,37.74
2018-04-15T07:45:53.160Z,37.56
2018-04-15T07:48:19.468Z,36.90
2018-04-15T07:50:46.511Z,36.26
2018-04-15T07:53:13.577Z,36.65
2018-04-15T07:55:39.833Z,36.52
2018-04-15T07:58:06.111Z,36.21
2018-04-15T08:00:33.165Z,35.86
2018-04-15T08:03:00.218Z,37.46
2018-04-15T08:05:26.534Z,36.99
2018-04-15T08:07:52.890Z,36.36
2018-04-15T08:10:19.217Z,36.59
2018-04-15T08:12:46.249Z,37.03
2018-04-15T08:15:13.394Z,37.76
2018-04-15T08:17:40.414Z,38.47
2018-04-15T08:20:06.695Z,38.28
2018-04-15T08:22:32.996Z,38.87
2018-04-15T08:24:59.351Z,38.51
2018-04-15T08:27:26.454Z,38.92
2018-04-15T08:29:53.594Z,38.38
2018-04-15T08:32:19.933Z,38.02
2018-04-15T08:34:46.255Z,37.88
2018-04-15T08:37:12.553Z,37.49
2018-04-15T08:39:38.899Z,37.30
2018-04-15T08:42:05.231Z,37.31
2018-04-15T08:44:31.527Z,36.86
2018-04-15T08:46:58.572Z,36.66
2018-04-15T08:49:25.610Z,35.83
2018-04-15T08:51:51.928Z,35.74
2018-04-15T08:54:18.249Z,34.89
2018-04-15T08:56:44.564Z,35.62
2018-04-15T08:59:10.857Z,35.78
2018-04-15T09:01:37.478Z,35.78
2018-04-15T09:04:03.800Z,34.76
2018-04-15T09:06:30.228Z,34.68
2018-04-15T09:08:57.363Z,33.70
2018-04-15T09:11:23.663Z,33.08
2018-04-15T09:13:50.217Z,32.25
2018-04-15T09:16:16.703Z,31.89
2018-04-15T09:18:43.837Z,32.11
2018-04-15T09:21:10.129Z,31.85
2018-04-15T09:23:36.488Z,31.64
2018-04-15T09:26:02.842Z,31.93
2018-04-15T09:28:29.992Z,31.69
2018-04-15T09:31:03.263Z,31.30
2018-04-15T09:33:29.557Z,31.54
2018-04-15T09:35:55.872Z,31.67
2018-04-15T09:38:22.150Z,31.36
2018-04-15T09:40:48.513Z,31.27
2018-04-15T09:43:15.659Z,31.06
2018-04-15T09:45:42.705Z,31.05
2018-04-15T09:48:09.773Z,30.82
2018-04-15T09:50:36.064Z,31.77
2018-04-15T09:53:02.360Z,31.35
2018-04-15T09:55:28.658Z,31.61
2018-04-15T09:57:54.955Z,32.28
2018-04-15T10:00:21.371Z,31.98
2018-04-15T10:02:47.663Z,32.45
2018-04-15T10:05:13.933Z,32.52
2018-04-15T10:07:40.208Z,31.81
2018-04-15T10:10:07.266Z,31.55
2018-04-15T10:12:33.622Z,30.78
2018-04-15T10:14:59.950Z,30.40
2018-04-15T10:17:26.225Z,29.92
2018-04-15T10:19:52.549Z,29.88
2018-04-15T10:22:18.821Z,30.05
2018-04-15T10:24:45.114Z,29.37
2018-04-15T10:27:11.434Z,30.31
2018-04-15T10:29:37.766Z,30.15
2018-04-15T10:32:04.088Z,30.10
2018-04-15T10:34:30.359Z,29.86
2018-04-15T10:36:57.442Z,28.78
2018-04-15T10:39:23.743Z,28.26
2018-04-15T10:41:50.782Z,27.64
2018-04-15T10:44:17.841Z,26.92
2018-04-15T10:46:44.912Z,27.12
2018-04-15T10:49:11.442Z,26.88
2018-04-15T10:51:37.785Z,26.52
2018-04-15T10:54:04.058Z,26.43
2018-04-15T10:56:30.499Z,25.63
2018-04-15T10:58:56.797Z,25.24
2018-04-15T11:01:23.236Z,25.62
2018-04-15T11:03:49.529Z,25.31
2018-04-15T11:06:15.866Z,25.82
2018-04-15T11:08:42.213Z,25.94
2018-04-15T11:11:09.228Z,25.62
2018-04-15T11:13:36.354Z,24.60
2018-04-15T11:16:02.643Z,26.00
2018-04-15T11:18:28.950Z,24.78
2018-04-15T11:20:55.282Z,26.24
2018-04-15T11:23:21.588Z,25.27
2018-04-15T11:25:48.705Z,25.53
2018-04-15T11:28:15.056Z,24.88
2018-04-15T11:30:41.428Z,24.51
2018-04-15T11:33:07.723Z,24.49
2018-04-15T11:35:34.012Z,24.29
2018-04-15T11:38:00.346Z,24.98
2018-04-15T11:40:26.668Z,24.56
2018-04-15T11:42:52.941Z,24.78
2018-04-15T11:45:19.256Z,24.57
2018-04-15T11:47:45.533Z,24.45
2018-04-15T11:50:11.833Z,24.71
2018-04-15T11:52:38.163Z,24.29
2018-04-15T11:55:04.472Z,24.56
2018-04-15T11:57:30.914Z,24.41
2018-04-15T11:59:57.253Z,24.22
2018-04-15T12:02:23.597Z,23.85
2018-04-15T12:04:49.857Z,23.92
2018-04-15T12:07:16.164Z,23.23
2018-04-15T12:09:43.226Z,23.99
2018-04-15T12:12:10.408Z,24.45
2018-04-15T12:14:36.724Z,25.01
2018-04-15T12:17:03.049Z,25.64
2018-04-15T12:19:29.340Z,25.36
2018-04-15T12:21:56.112Z,25.40
2018-04-15T12:24:23.216Z,25.36
2018-04-15T12:26:49.692Z,26.02
2018-04-15T12:29:16.090Z,24.83
2018-04-15T12:31:42.465Z,23.19
2018-04-15T12:34:08.811Z,20.47
2018-04-15T12:36:35.102Z,17.13
2018-04-15T12:39:01.435Z,15.24
2018-04-15T12:41:27.717Z,13.67
2018-04-15T12:43:54.178Z,11.63
2018-04-15T12:46:20.480Z,10.30
2018-04-15T12:48:46.748Z,9.33
2018-04-15T12:51:13.201Z,8.77
2018-04-15T12:53:40.358Z,9.47
2018-04-15T12:56:08.775Z,8.50
2018-04-15T12:58:35.111Z,7.51
2018-04-15T13:01:02.539Z,7.89
2018-04-15T13:03:28.884Z,8.33
2018-04-15T13:05:55.293Z,7.38
2018-04-15T13:08:22.478Z,7.09
2018-04-15T13:10:49.625Z,6.90
2018-04-15T13:13:15.933Z,7.58
2018-04-15T13:15:43.062Z,7.04
2018-04-15T13:18:10.119Z,6.79
2018-04-15T13:20:36.456Z,6.38
2018-04-15T13:23:03.497Z,6.08
2018-04-15T13:25:30.551Z,5.77
2018-04-15T13:27:56.878Z,5.37
2018-04-15T13:30:23.224Z,5.11
2018-04-15T13:32:49.541Z,4.58
2018-04-15T13:35:16.585Z,4.29
2018-04-15T13:37:44.563Z,4.89
2018-04-15T13:40:11.011Z,5.38
2018-04-15T13:42:37.306Z,5.81
2018-04-15T13:45:03.741Z,5.39
2018-04-15T13:47:30.178Z,5.41
2018-04-15T13:49:56.533Z,5.44
2018-04-15T13:52:23.608Z,6.28
2018-04-15T13:54:49.909Z,6.90
2018-04-15T13:57:16.279Z,7.67
2018-04-15T13:59:42.557Z,8.46
2018-04-15T14:02:09.611Z,7.80
2018-04-15T14:04:36.631Z,8.38
2018-04-15T14:07:03.299Z,7.90
2018-04-15T14:09:30.602Z,8.18
2018-04-15T14:11:56.982Z,9.10
2018-04-15T14:14:23.279Z,11.02
2018-04-15T14:16:49.737Z,12.73
2018-04-15T14:19:16.801Z,13.79
2018-04-15T14:21:43.108Z,12.66
2018-04-15T14:24:10.197Z,13.10
2018-04-15T14:26:36.508Z,11.88
2018-04-15T14:29:02.786Z,10.85
2018-04-15T14:31:29.086Z,9.09
2018-04-15T14:33:55.403Z,8.29
2018-04-15T14:36:22.566Z,8.37
2018-04-15T14:38:49.622Z,10.93
2018-04-15T14:41:15.935Z,12.31
2018-04-15T14:43:43.002Z,13.95
2018-04-15T14:46:09.329Z,15.56
2018-04-15T14:48:35.746Z,16.93
2018-04-15T14:51:02.100Z,16.73
2018-04-15T14:53:28.489Z,17.31
2018-04-15T14:55:54.902Z,18.27
2018-04-15T14:58:22.859Z,18.75
2018-04-15T15:00:49.230Z,19.91
2018-04-15T15:03:15.527Z,20.30
2018-04-15T15:05:41.854Z,20.98
2018-04-15T15:08:08.975Z,20.86
2018-04-15T15:10:35.350Z,20.37
2018-04-15T15:13:02.136Z,20.67
2018-04-15T15:15:29.241Z,21.30
2018-04-15T15:17:55.908Z,21.68
2018-04-15T15:20:23.108Z,22.15
2018-04-15T15:22:49.525Z,22.92
2018-04-15T15:25:15.967Z,23.96
2018-04-15T15:27:42.305Z,24.96
2018-04-15T15:30:08.611Z,25.36
2018-04-15T15:32:35.124Z,25.65
2018-04-15T15:35:02.155Z,25.83
2018-04-15T15:37:28.655Z,26.77
2018-04-15T15:39:55.083Z,27.39
2018-04-15T15:42:21.383Z,27.84
2018-04-15T15:44:47.768Z,28.20
2018-04-15T15:47:14.243Z,28.36
2018-04-15T15:49:41.277Z,28.49
2018-04-15T15:52:07.964Z,29.20
2018-04-15T15:54:34.287Z,29.47
2018-04-15T15:57:00.659Z,29.39
2018-04-15T15:59:34.184Z,28.56
2018-04-15T16:02:01.282Z,28.96
2018-04-15T16:04:27.631Z,29.79
2018-04-15T16:06:53.983Z,29.73
2018-04-15T16:09:20.601Z,29.50
2018-04-15T16:11:46.938Z,29.03
2018-04-15T16:14:13.276Z,28.94
2018-04-15T16:16:39.631Z,28.99
2018-04-15T16:19:06.968Z,29.25
2018-04-15T16:21:33.556Z,29.93
2018-04-15T16:26:55.780Z,28.03
2018-04-15T16:29:23.148Z,26.70
2018-04-15T16:31:49.512Z,27.67
2018-04-15T16:34:15.919Z,28.20
2018-04-15T16:36:42.551Z,29.02
2018-04-15T16:39:09.747Z,29.29
2018-04-15T16:41:36.185Z,29.82
2018-04-15T16:44:02.664Z,30.23
2018-04-15T16:46:29.819Z,30.67
2018-04-15T16:48:57.062Z,30.12
2018-04-15T16:51:23.599Z,29.58
2018-04-15T16:53:50.809Z,30.11
2018-04-15T16:56:17.162Z,31.27
2018-04-15T16:58:43.611Z,30.75
2018-04-15T17:01:10.684Z,30.79
2018-04-15T17:03:36.973Z,29.76
2018-04-15T17:06:03.563Z,30.10
2018-04-15T17:08:29.883Z,29.10
2018-04-15T17:10:56.202Z,29.20
2018-04-15T17:13:23.223Z,29.21
2018-04-15T17:15:49.548Z,31.24
2018-04-15T17:18:15.975Z,31.77
2018-04-15T17:20:42.319Z,32.36
2018-04-15T17:23:08.656Z,32.57
2018-04-15T17:25:35.727Z,34.88
2018-04-15T17:28:02.074Z,35.71
2018-04-15T17:30:28.468Z,37.36
2018-04-15T17:32:54.795Z,38.49
2018-04-15T17:35:21.069Z,38.98
2018-04-15T17:37:47.363Z,40.06
2018-04-15T17:40:13.691Z,40.16
2018-04-15T17:42:40.037Z,40.37
2018-04-15T17:45:07.153Z,40.75
2018-04-15T17:47:33.457Z,40.73
2018-04-15T17:49:59.832Z,42.02
2018-04-15T17:52:26.150Z,41.16
2018-04-15T17:54:52.461Z,41.41
2018-04-15T17:57:18.735Z,41.71
2018-04-15T17:59:45.077Z,41.91
2018-04-15T18:02:12.187Z,42.91
2018-04-15T18:04:38.519Z,43.49
2018-04-15T18:07:04.842Z,43.31
2018-04-15T18:09:31.178Z,43.48
2018-04-15T18:11:57.636Z,43.95
2018-04-15T18:14:24.311Z,45.32
2018-04-15T18:16:50.779Z,45.35
2018-04-15T18:19:17.275Z,45.20
2018-04-15T18:21:43.733Z,45.88
2018-04-15T18:24:10.021Z,45.34
2018-04-15T18:26:37.134Z,45.77
2018-04-15T18:29:04.259Z,46.50
2018-04-15T18:31:30.592Z,46.98
2018-04-15T18:33:56.929Z,46.61
2018-04-15T18:36:23.231Z,46.09
2018-04-15T18:38:50.409Z,47.10
2018-04-15T18:41:16.674Z,47.11
2018-04-15T18:43:43.143Z,48.13
2018-04-15T18:46:09.557Z,47.76
2018-04-15T18:48:36.149Z,47.71
2018-04-15T18:51:02.587Z,48.47
2018-04-15T18:53:28.973Z,49.09
2018-04-15T18:55:56.069Z,49.08
2018-04-15T18:58:22.419Z,49.47
2018-04-15T19:00:48.751Z,49.64
2018-04-15T19:03:15.820Z,50.13
2018-04-15T19:05:42.203Z,51.24
2018-04-15T19:08:08.640Z,51.75
2018-04-15T19:10:34.984Z,51.75
2018-04-15T19:13:01.337Z,51.83
2018-04-15T19:15:27.655Z,52.90
2018-04-15T19:17:54.082Z,52.59
2018-04-15T19:20:20.554Z,52.59
2018-04-15T19:22:46.924Z,52.64
2018-04-15T19:25:13.286Z,52.72
2018-04-15T19:27:39.725Z,52.45
2018-04-15T19:30:06.858Z,52.56
2018-04-15T19:32:33.498Z,52.79
2018-04-15T19:34:59.827Z,53.24
2018-04-15T19:37:26.334Z,53.93
2018-04-15T19:39:52.840Z,54.67
2018-04-15T19:42:19.386Z,55.14
2018-04-15T19:44:45.922Z,55.45
2018-04-15T19:47:12.429Z,55.59
2018-04-15T19:49:38.877Z,55.84
2018-04-15T19:52:05.297Z,55.87
2018-04-15T19:54:31.820Z,56.08
2018-04-15T19:56:58.440Z,56.43
2018-04-15T19:59:25.536Z,56.62
2018-04-15T20:01:51.999Z,56.35
2018-04-15T20:04:18.402Z,56.85
2018-04-15T20:06:44.817Z,56.99
2018-04-15T20:09:11.382Z,56.71
2018-04-15T20:11:38.450Z,57.36
2018-04-15T20:14:04.955Z,57.54
2018-04-15T20:16:31.570Z,57.26
2018-04-15T20:18:58.136Z,57.59
2018-04-15T20:21:24.490Z,57.57
2018-04-15T20:23:50.964Z,56.83
2018-04-15T20:26:17.306Z,56.60
2018-04-15T20:28:43.734Z,56.89
2018-04-15T20:31:10.141Z,57.10
2018-04-15T20:33:36.464Z,56.93
2018-04-15T20:36:02.846Z,56.87
2018-04-15T20:38:29.236Z,56.90
2018-04-15T20:40:55.641Z,56.61
2018-04-15T20:43:22.000Z,57.21
2018-04-15T20:45:48.356Z,56.55
2018-04-15T20:48:14.778Z,56.36
2018-04-15T20:50:41.545Z,54.82
2018-04-15T20:53:07.988Z,54.50
2018-04-15T20:55:34.374Z,54.44
2018-04-15T20:58:00.835Z,54.42
2018-04-15T21:00:27.147Z,54.46
2018-04-15T21:02:53.475Z,54.58
2018-04-15T21:05:19.874Z,54.17
2018-04-15T21:07:46.522Z,54.42
2018-04-15T21:10:12.842Z,54.42
2018-04-15T21:12:39.882Z,53.93
2018-04-15T21:15:07.138Z,54.34
2018-04-15T21:17:34.237Z,54.25
2018-04-15T21:20:00.557Z,54.07
2018-04-15T21:22:26.858Z,54.08
2018-04-15T21:24:53.537Z,53.78
2018-04-15T21:27:19.838Z,53.39
2018-04-15T21:29:47.026Z,53.08
2018-04-15T21:32:13.445Z,53.30
2018-04-15T21:34:39.868Z,53.43
2018-04-15T21:37:06.187Z,53.72
2018-04-15T21:39:33.327Z,53.90
2018-04-15T21:41:59.679Z,54.05
2018-04-15T21:44:26.005Z,53.87
2018-04-15T21:46:52.305Z,54.12
2018-04-15T21:49:18.753Z,53.85
2018-04-15T21:51:45.105Z,54.04
2018-04-15T21:54:11.490Z,53.62
2018-04-15T21:56:37.753Z,53.42
2018-04-15T21:59:04.967Z,53.84
2018-04-15T22:01:31.240Z,53.92
2018-04-15T22:03:57.560Z,53.54
2018-04-15T22:06:24.676Z,53.95
2018-04-15T22:08:50.984Z,54.19
2018-04-15T22:11:17.375Z,53.71
2018-04-15T22:13:44.465Z,53.88
2018-04-15T22:16:10.897Z,53.47
2018-04-15T22:18:37.261Z,53.97
2018-04-15T22:21:03.560Z,53.92
2018-04-15T22:23:29.926Z,53.90
2018-04-15T22:25:56.253Z,54.91
2018-04-15T22:28:22.556Z,55.03
2018-04-15T22:30:48.922Z,54.83
2018-04-15T22:33:15.712Z,54.32
2018-04-15T22:35:42.227Z,54.65
2018-04-15T22:38:09.276Z,54.84
2018-04-15T22:40:36.341Z,55.00
2018-04-15T22:43:02.648Z,54.85
2018-04-15T22:45:29.004Z,54.44
2018-04-15T22:48:01.699Z,54.08
2018-04-15T22:50:34.312Z,54.52
2018-04-15T22:53:01.053Z,53.32
2018-04-15T22:55:27.465Z,52.06
2018-04-15T22:57:53.719Z,52.80
2018-04-15T23:00:20.107Z,53.70
2018-04-15T23:02:46.418Z,55.19
2018-04-15T23:05:13.678Z,55.29
2018-04-15T23:07:40.064Z,55.10
2018-04-15T23:10:06.628Z,55.05
2018-04-15T23:12:33.773Z,55.22
2018-04-15T23:15:00.893Z,56.11
2018-04-15T23:17:27.167Z,56.99
2018-04-15T23:19:54.295Z,57.06
2018-04-15T23:22:20.609Z,57.31
2018-04-15T23:24:47.018Z,57.50
2018-04-15T23:27:13.320Z,57.67
2018-04-15T23:29:39.692Z,56.75
2018-04-15T23:32:06.002Z,57.16
2018-04-15T23:34:32.320Z,57.64
2018-04-15T23:36:58.643Z,58.05
2018-04-15T23:39:24.987Z,59.09
2018-04-15T23:41:51.276Z,58.75
2018-04-15T23:44:17.647Z,58.03
2018-04-15T23:46:44.015Z,58.09
2018-04-15T23:49:10.332Z,57.96
2018-04-15T23:51:36.601Z,57.76
2018-04-15T23:54:02.903Z,58.88
2018-04-15T23:56:29.165Z,58.42
2018-04-15T23:58:55.429Z,59.11
